Brock, Nebraska
Current Conditions -  °F | °C
As of 4:35 PM on Wednesday 22 Oct 2014 (Local Time) from KAFK Reporting Station
Clear Clear  
Wind Chill: 75°   Ceiling: Unl
Heat Index: 75°   Visibility: 10mi
Dew Point: 49°   Wind: 17mph
Humidity: 40%   Direction: 170°S
Pressure: 30.02"   Gusts: 21mph
Location:  40.48°N, 95.96°W
Report Text: KAFK 222135Z AUTO 17015G18KT 10SM CLR 24/10 A3002 RMK AO2 LTG DSNT W T02410097
Loading
Personal Weather Stations






























Interactive Weather Map
Tropical Storm Tracking
New forecast layout! Learn more

10-Day Weather Forecast

Advertisements
Track Severe Weather on mobile